sensor_id;sensor_type;location;lat;lon;timestamp;P1;durP1;ratioP1;P2;durP2;ratioP2
62401;SDS011;48440;51.224;22.506;2022-12-18T00:01:25;79.78;;;23.75;;
62401;SDS011;48440;51.224;22.506;2022-12-18T00:03:53;75.05;;;21.95;;
62401;SDS011;48440;51.224;22.506;2022-12-18T00:06:20;73.85;;;23.00;;
62401;SDS011;48440;51.224;22.506;2022-12-18T00:08:46;78.72;;;22.95;;
62401;SDS011;48440;51.224;22.506;2022-12-18T00:11:14;85.30;;;23.77;;
62401;SDS011;48440;51.224;22.506;2022-12-18T00:13:41;66.15;;;21.83;;
62401;SDS011;48440;51.224;22.506;2022-12-18T00:16:09;89.78;;;25.33;;
62401;SDS011;48440;51.224;22.506;2022-12-18T00:18:36;69.15;;;21.88;;
62401;SDS011;48440;51.224;22.506;2022-12-18T00:21:03;70.72;;;21.80;;
62401;SDS011;48440;51.224;22.506;2022-12-18T00:23:32;61.22;;;20.58;;
62401;SDS011;48440;51.224;22.506;2022-12-18T00:26:02;68.45;;;21.42;;
62401;SDS011;48440;51.224;22.506;2022-12-18T00:28:29;60.00;;;21.83;;
62401;SDS011;48440;51.224;22.506;2022-12-18T00:31:05;70.10;;;21.85;;
62401;SDS011;48440;51.224;22.506;2022-12-18T00:33:33;77.05;;;22.63;;
62401;SDS011;48440;51.224;22.506;2022-12-18T00:36:03;70.57;;;21.80;;
62401;SDS011;48440;51.224;22.506;2022-12-18T00:38:30;72.35;;;21.63;;
62401;SDS011;48440;51.224;22.506;2022-12-18T00:40:55;57.00;;;20.13;;
62401;SDS011;48440;51.224;22.506;2022-12-18T00:43:21;59.70;;;18.88;;
62401;SDS011;48440;51.224;22.506;2022-12-18T00:45:46;66.22;;;19.55;;
62401;SDS011;48440;51.224;22.506;2022-12-18T00:48:11;56.42;;;17.77;;
62401;SDS011;48440;51.224;22.506;2022-12-18T00:50:37;55.63;;;18.50;;
62401;SDS011;48440;51.224;22.506;2022-12-18T00:53:03;64.05;;;19.77;;
62401;SDS011;48440;51.224;22.506;2022-12-18T00:55:28;55.67;;;18.90;;
62401;SDS011;48440;51.224;22.506;2022-12-18T00:57:54;59.80;;;19.95;;
62401;SDS011;48440;51.224;22.506;2022-12-18T01:00:19;56.80;;;20.38;;
62401;SDS011;48440;51.224;22.506;2022-12-18T01:02:45;57.45;;;18.75;;
62401;SDS011;48440;51.224;22.506;2022-12-18T01:05:11;50.03;;;16.20;;
62401;SDS011;48440;51.224;22.506;2022-12-18T01:07:37;55.55;;;17.90;;
62401;SDS011;48440;51.224;22.506;2022-12-18T01:10:03;51.17;;;17.52;;
62401;SDS011;48440;51.224;22.506;2022-12-18T01:12:30;50.72;;;17.95;;
62401;SDS011;48440;51.224;22.506;2022-12-18T01:14:55;49.30;;;16.80;;
62401;SDS011;48440;51.224;22.506;2022-12-18T01:17:21;51.22;;;17.75;;
62401;SDS011;48440;51.224;22.506;2022-12-18T01:19:47;56.58;;;16.90;;
62401;SDS011;48440;51.224;22.506;2022-12-18T01:22:13;55.20;;;20.52;;
62401;SDS011;48440;51.224;22.506;2022-12-18T01:24:38;58.05;;;19.38;;
62401;SDS011;48440;51.224;22.506;2022-12-18T01:27:04;58.92;;;19.77;;
62401;SDS011;48440;51.224;22.506;2022-12-18T01:29:29;53.38;;;18.17;;
62401;SDS011;48440;51.224;22.506;2022-12-18T01:31:55;62.40;;;20.27;;
62401;SDS011;48440;51.224;22.506;2022-12-18T01:34:21;54.17;;;17.15;;
62401;SDS011;48440;51.224;22.506;2022-12-18T01:36:47;59.50;;;18.48;;
62401;SDS011;48440;51.224;22.506;2022-12-18T01:39:14;54.67;;;19.92;;
62401;SDS011;48440;51.224;22.506;2022-12-18T01:41:40;54.55;;;20.65;;
62401;SDS011;48440;51.224;22.506;2022-12-18T01:47:17;44.78;;;16.13;;
62401;SDS011;48440;51.224;22.506;2022-12-18T01:49:49;52.63;;;16.48;;
62401;SDS011;48440;51.224;22.506;2022-12-18T01:52:15;42.75;;;14.88;;
62401;SDS011;48440;51.224;22.506;2022-12-18T01:54:42;47.72;;;15.30;;
62401;SDS011;48440;51.224;22.506;2022-12-18T01:57:08;46.70;;;14.75;;
62401;SDS011;48440;51.224;22.506;2022-12-18T01:59:34;48.67;;;15.23;;
62401;SDS011;48440;51.224;22.506;2022-12-18T02:02:01;43.85;;;15.30;;
62401;SDS011;48440;51.224;22.506;2022-12-18T02:04:27;43.92;;;15.48;;
62401;SDS011;48440;51.224;22.506;2022-12-18T02:07:12;39.85;;;14.80;;
62401;SDS011;48440;51.224;22.506;2022-12-18T02:09:46;51.08;;;16.48;;
62401;SDS011;48440;51.224;22.506;2022-12-18T02:12:24;46.83;;;15.77;;
62401;SDS011;48440;51.224;22.506;2022-12-18T02:17:43;43.40;;;15.45;;
62401;SDS011;48440;51.224;22.506;2022-12-18T02:20:17;50.58;;;16.25;;
62401;SDS011;48440;51.224;22.506;2022-12-18T02:23:00;39.58;;;15.30;;
62401;SDS011;48440;51.224;22.506;2022-12-18T02:28:30;43.25;;;15.07;;
62401;SDS011;48440;51.224;22.506;2022-12-18T02:31:01;40.28;;;13.93;;
62401;SDS011;48440;51.224;22.506;2022-12-18T02:33:30;42.83;;;14.32;;
62401;SDS011;48440;51.224;22.506;2022-12-18T02:35:56;52.05;;;15.32;;
62401;SDS011;48440;51.224;22.506;2022-12-18T02:38:24;46.05;;;15.93;;
62401;SDS011;48440;51.224;22.506;2022-12-18T02:40:50;42.65;;;14.75;;
62401;SDS011;48440;51.224;22.506;2022-12-18T02:43:18;55.15;;;16.35;;
62401;SDS011;48440;51.224;22.506;2022-12-18T02:45:52;45.63;;;14.48;;
62401;SDS011;48440;51.224;22.506;2022-12-18T02:48:21;47.97;;;14.90;;
62401;SDS011;48440;51.224;22.506;2022-12-18T02:50:57;54.42;;;16.08;;
62401;SDS011;48440;51.224;22.506;2022-12-18T02:53:37;41.95;;;15.68;;
62401;SDS011;48440;51.224;22.506;2022-12-18T02:58:34;45.53;;;16.02;;
62401;SDS011;48440;51.224;22.506;2022-12-18T03:04:11;62.85;;;17.23;;
62401;SDS011;48440;51.224;22.506;2022-12-18T03:06:45;62.88;;;16.83;;
62401;SDS011;48440;51.224;22.506;2022-12-18T03:09:22;54.65;;;17.02;;
62401;SDS011;48440;51.224;22.506;2022-12-18T03:11:56;51.58;;;17.73;;
62401;SDS011;48440;51.224;22.506;2022-12-18T03:14:46;52.33;;;16.52;;
62401;SDS011;48440;51.224;22.506;2022-12-18T03:17:18;55.28;;;17.50;;
62401;SDS011;48440;51.224;22.506;2022-12-18T03:19:48;50.25;;;18.95;;
62401;SDS011;48440;51.224;22.506;2022-12-18T03:22:14;54.55;;;17.05;;
62401;SDS011;48440;51.224;22.506;2022-12-18T03:24:41;55.85;;;19.23;;
62401;SDS011;48440;51.224;22.506;2022-12-18T03:27:09;59.17;;;18.20;;
62401;SDS011;48440;51.224;22.506;2022-12-18T03:29:47;52.23;;;17.20;;
62401;SDS011;48440;51.224;22.506;2022-12-18T03:32:23;48.25;;;16.67;;
62401;SDS011;48440;51.224;22.506;2022-12-18T03:34:53;49.63;;;16.83;;
62401;SDS011;48440;51.224;22.506;2022-12-18T03:37:22;41.00;;;15.07;;
62401;SDS011;48440;51.224;22.506;2022-12-18T03:39:48;42.95;;;15.55;;
62401;SDS011;48440;51.224;22.506;2022-12-18T03:42:15;37.78;;;14.98;;
62401;SDS011;48440;51.224;22.506;2022-12-18T03:50:22;42.08;;;14.57;;
62401;SDS011;48440;51.224;22.506;2022-12-18T03:53:18;34.97;;;13.70;;
62401;SDS011;48440;51.224;22.506;2022-12-18T03:56:03;34.33;;;13.38;;
62401;SDS011;48440;51.224;22.506;2022-12-18T03:58:30;37.80;;;15.38;;
62401;SDS011;48440;51.224;22.506;2022-12-18T04:00:59;38.58;;;14.23;;
62401;SDS011;48440;51.224;22.506;2022-12-18T04:03:27;39.05;;;14.20;;
62401;SDS011;48440;51.224;22.506;2022-12-18T04:05:56;36.78;;;14.00;;
62401;SDS011;48440;51.224;22.506;2022-12-18T04:08:25;37.20;;;13.57;;
62401;SDS011;48440;51.224;22.506;2022-12-18T04:10:51;39.55;;;14.25;;
62401;SDS011;48440;51.224;22.506;2022-12-18T04:13:23;36.17;;;14.38;;
62401;SDS011;48440;51.224;22.506;2022-12-18T04:15:52;39.53;;;16.50;;
62401;SDS011;48440;51.224;22.506;2022-12-18T04:18:18;40.35;;;16.90;;
62401;SDS011;48440;51.224;22.506;2022-12-18T04:20:44;44.28;;;18.33;;
62401;SDS011;48440;51.224;22.506;2022-12-18T04:23:09;41.70;;;16.67;;
62401;SDS011;48440;51.224;22.506;2022-12-18T04:25:35;44.47;;;18.05;;
62401;SDS011;48440;51.224;22.506;2022-12-18T04:28:00;47.70;;;19.08;;
62401;SDS011;48440;51.224;22.506;2022-12-18T04:30:26;46.78;;;18.70;;
62401;SDS011;48440;51.224;22.506;2022-12-18T04:32:51;49.90;;;19.42;;
62401;SDS011;48440;51.224;22.506;2022-12-18T04:35:16;52.53;;;20.25;;
62401;SDS011;48440;51.224;22.506;2022-12-18T04:37:42;47.13;;;19.30;;
62401;SDS011;48440;51.224;22.506;2022-12-18T04:40:07;50.47;;;18.20;;
62401;SDS011;48440;51.224;22.506;2022-12-18T04:42:33;44.35;;;19.38;;
62401;SDS011;48440;51.224;22.506;2022-12-18T04:44:59;40.35;;;17.20;;
62401;SDS011;48440;51.224;22.506;2022-12-18T04:47:24;46.83;;;19.95;;
62401;SDS011;48440;51.224;22.506;2022-12-18T04:49:49;45.38;;;18.90;;
62401;SDS011;48440;51.224;22.506;2022-12-18T04:52:15;42.63;;;17.25;;
62401;SDS011;48440;51.224;22.506;2022-12-18T04:54:41;44.78;;;17.85;;
62401;SDS011;48440;51.224;22.506;2022-12-18T04:57:06;44.38;;;17.92;;
62401;SDS011;48440;51.224;22.506;2022-12-18T04:59:32;46.00;;;18.08;;
62401;SDS011;48440;51.224;22.506;2022-12-18T05:01:57;45.95;;;17.00;;
62401;SDS011;48440;51.224;22.506;2022-12-18T05:04:22;41.25;;;16.67;;
62401;SDS011;48440;51.224;22.506;2022-12-18T05:06:48;46.28;;;18.42;;
62401;SDS011;48440;51.224;22.506;2022-12-18T05:09:13;42.13;;;17.30;;
62401;SDS011;48440;51.224;22.506;2022-12-18T05:11:39;41.97;;;17.20;;
62401;SDS011;48440;51.224;22.506;2022-12-18T05:14:04;46.22;;;18.45;;
62401;SDS011;48440;51.224;22.506;2022-12-18T05:16:29;43.25;;;18.60;;
62401;SDS011;48440;51.224;22.506;2022-12-18T05:18:55;40.67;;;16.30;;
62401;SDS011;48440;51.224;22.506;2022-12-18T05:21:20;41.00;;;18.55;;
62401;SDS011;48440;51.224;22.506;2022-12-18T05:23:46;40.58;;;16.63;;
62401;SDS011;48440;51.224;22.506;2022-12-18T05:26:14;38.83;;;16.50;;
62401;SDS011;48440;51.224;22.506;2022-12-18T05:28:42;49.58;;;17.77;;
62401;SDS011;48440;51.224;22.506;2022-12-18T05:31:07;42.40;;;16.63;;
62401;SDS011;48440;51.224;22.506;2022-12-18T05:33:34;41.40;;;16.67;;
62401;SDS011;48440;51.224;22.506;2022-12-18T05:36:00;42.22;;;16.52;;
62401;SDS011;48440;51.224;22.506;2022-12-18T05:38:29;34.80;;;14.93;;
62401;SDS011;48440;51.224;22.506;2022-12-18T05:40:56;42.50;;;16.42;;
62401;SDS011;48440;51.224;22.506;2022-12-18T05:43:24;39.03;;;16.10;;
62401;SDS011;48440;51.224;22.506;2022-12-18T05:45:51;41.92;;;16.30;;
62401;SDS011;48440;51.224;22.506;2022-12-18T05:48:17;36.20;;;15.18;;
62401;SDS011;48440;51.224;22.506;2022-12-18T05:50:44;40.30;;;15.23;;
62401;SDS011;48440;51.224;22.506;2022-12-18T05:53:11;42.55;;;17.02;;
62401;SDS011;48440;51.224;22.506;2022-12-18T05:55:38;37.70;;;14.40;;
62401;SDS011;48440;51.224;22.506;2022-12-18T05:58:05;35.42;;;13.50;;
62401;SDS011;48440;51.224;22.506;2022-12-18T06:00:32;32.30;;;13.82;;
62401;SDS011;48440;51.224;22.506;2022-12-18T06:03:00;40.95;;;14.77;;
62401;SDS011;48440;51.224;22.506;2022-12-18T06:05:26;32.92;;;12.82;;
62401;SDS011;48440;51.224;22.506;2022-12-18T06:07:52;35.22;;;12.75;;
62401;SDS011;48440;51.224;22.506;2022-12-18T06:10:17;32.88;;;12.63;;
62401;SDS011;48440;51.224;22.506;2022-12-18T06:12:43;32.55;;;13.15;;
62401;SDS011;48440;51.224;22.506;2022-12-18T06:15:09;35.40;;;13.68;;
62401;SDS011;48440;51.224;22.506;2022-12-18T06:17:34;34.55;;;13.63;;
62401;SDS011;48440;51.224;22.506;2022-12-18T06:20:00;33.30;;;13.25;;
62401;SDS011;48440;51.224;22.506;2022-12-18T06:22:26;32.47;;;12.88;;
62401;SDS011;48440;51.224;22.506;2022-12-18T06:24:52;36.03;;;13.30;;
62401;SDS011;48440;51.224;22.506;2022-12-18T06:27:18;33.05;;;13.60;;
62401;SDS011;48440;51.224;22.506;2022-12-18T06:29:43;38.47;;;14.88;;
62401;SDS011;48440;51.224;22.506;2022-12-18T06:32:09;35.83;;;14.77;;
62401;SDS011;48440;51.224;22.506;2022-12-18T06:34:36;35.90;;;14.45;;
62401;SDS011;48440;51.224;22.506;2022-12-18T06:37:02;36.00;;;14.35;;
62401;SDS011;48440;51.224;22.506;2022-12-18T06:39:28;37.95;;;15.18;;
62401;SDS011;48440;51.224;22.506;2022-12-18T06:41:54;41.45;;;15.80;;
62401;SDS011;48440;51.224;22.506;2022-12-18T06:44:20;42.17;;;15.63;;
62401;SDS011;48440;51.224;22.506;2022-12-18T06:46:46;41.63;;;16.30;;
62401;SDS011;48440;51.224;22.506;2022-12-18T06:49:11;41.55;;;15.18;;
62401;SDS011;48440;51.224;22.506;2022-12-18T06:51:37;35.53;;;15.57;;
62401;SDS011;48440;51.224;22.506;2022-12-18T06:54:03;37.03;;;14.23;;
62401;SDS011;48440;51.224;22.506;2022-12-18T06:56:29;38.85;;;14.68;;
62401;SDS011;48440;51.224;22.506;2022-12-18T06:58:55;39.95;;;16.27;;
62401;SDS011;48440;51.224;22.506;2022-12-18T07:01:20;39.05;;;15.52;;
62401;SDS011;48440;51.224;22.506;2022-12-18T07:03:47;44.63;;;16.95;;
62401;SDS011;48440;51.224;22.506;2022-12-18T07:06:17;39.75;;;16.50;;
62401;SDS011;48440;51.224;22.506;2022-12-18T07:08:44;42.95;;;16.65;;
62401;SDS011;48440;51.224;22.506;2022-12-18T07:11:10;43.22;;;17.55;;
62401;SDS011;48440;51.224;22.506;2022-12-18T07:13:36;44.40;;;17.73;;
62401;SDS011;48440;51.224;22.506;2022-12-18T07:16:09;47.38;;;18.10;;
62401;SDS011;48440;51.224;22.506;2022-12-18T07:18:36;47.40;;;16.73;;
62401;SDS011;48440;51.224;22.506;2022-12-18T07:21:02;46.10;;;16.80;;
62401;SDS011;48440;51.224;22.506;2022-12-18T07:23:29;44.47;;;17.48;;
62401;SDS011;48440;51.224;22.506;2022-12-18T07:25:54;42.40;;;16.88;;
62401;SDS011;48440;51.224;22.506;2022-12-18T07:28:20;48.05;;;16.67;;
62401;SDS011;48440;51.224;22.506;2022-12-18T07:30:45;56.13;;;19.40;;
62401;SDS011;48440;51.224;22.506;2022-12-18T07:33:11;45.78;;;17.52;;
62401;SDS011;48440;51.224;22.506;2022-12-18T07:35:36;50.00;;;19.63;;
62401;SDS011;48440;51.224;22.506;2022-12-18T07:38:02;47.15;;;18.33;;
62401;SDS011;48440;51.224;22.506;2022-12-18T07:40:27;44.88;;;18.50;;
62401;SDS011;48440;51.224;22.506;2022-12-18T07:42:53;51.78;;;19.58;;
62401;SDS011;48440;51.224;22.506;2022-12-18T07:45:18;44.20;;;17.48;;
62401;SDS011;48440;51.224;22.506;2022-12-18T07:47:43;49.75;;;17.80;;
62401;SDS011;48440;51.224;22.506;2022-12-18T07:50:09;52.05;;;18.92;;
62401;SDS011;48440;51.224;22.506;2022-12-18T07:52:34;46.97;;;17.73;;
62401;SDS011;48440;51.224;22.506;2022-12-18T07:55:00;49.55;;;17.90;;
62401;SDS011;48440;51.224;22.506;2022-12-18T07:57:25;45.10;;;17.55;;
62401;SDS011;48440;51.224;22.506;2022-12-18T07:59:51;53.55;;;19.35;;
62401;SDS011;48440;51.224;22.506;2022-12-18T08:02:16;54.75;;;19.92;;
62401;SDS011;48440;51.224;22.506;2022-12-18T08:04:42;50.10;;;19.20;;
62401;SDS011;48440;51.224;22.506;2022-12-18T08:07:07;56.72;;;21.30;;
62401;SDS011;48440;51.224;22.506;2022-12-18T08:09:33;50.58;;;20.00;;
62401;SDS011;48440;51.224;22.506;2022-12-18T08:11:58;48.28;;;19.95;;
62401;SDS011;48440;51.224;22.506;2022-12-18T08:14:24;53.78;;;21.88;;
62401;SDS011;48440;51.224;22.506;2022-12-18T08:16:49;49.20;;;20.35;;
62401;SDS011;48440;51.224;22.506;2022-12-18T08:19:15;49.33;;;18.63;;
62401;SDS011;48440;51.224;22.506;2022-12-18T08:21:40;61.80;;;20.98;;
62401;SDS011;48440;51.224;22.506;2022-12-18T08:24:06;52.72;;;19.27;;
62401;SDS011;48440;51.224;22.506;2022-12-18T08:26:31;55.38;;;21.23;;
62401;SDS011;48440;51.224;22.506;2022-12-18T08:28:57;60.65;;;21.25;;
62401;SDS011;48440;51.224;22.506;2022-12-18T08:31:24;52.25;;;20.33;;
62401;SDS011;48440;51.224;22.506;2022-12-18T08:33:51;55.67;;;20.20;;
62401;SDS011;48440;51.224;22.506;2022-12-18T08:36:18;53.83;;;21.58;;
62401;SDS011;48440;51.224;22.506;2022-12-18T08:38:45;56.42;;;20.27;;
62401;SDS011;48440;51.224;22.506;2022-12-18T08:41:11;47.13;;;19.63;;
62401;SDS011;48440;51.224;22.506;2022-12-18T08:43:38;51.63;;;19.73;;
62401;SDS011;48440;51.224;22.506;2022-12-18T08:46:24;53.30;;;20.13;;
62401;SDS011;48440;51.224;22.506;2022-12-18T08:48:51;53.95;;;19.40;;
62401;SDS011;48440;51.224;22.506;2022-12-18T08:51:17;54.47;;;20.92;;
62401;SDS011;48440;51.224;22.506;2022-12-18T08:53:43;52.72;;;20.23;;
62401;SDS011;48440;51.224;22.506;2022-12-18T08:56:09;58.58;;;21.55;;
62401;SDS011;48440;51.224;22.506;2022-12-18T08:58:35;56.95;;;21.30;;
62401;SDS011;48440;51.224;22.506;2022-12-18T09:01:02;59.63;;;21.98;;
62401;SDS011;48440;51.224;22.506;2022-12-18T09:03:28;53.60;;;20.58;;
62401;SDS011;48440;51.224;22.506;2022-12-18T09:05:54;65.05;;;20.92;;
62401;SDS011;48440;51.224;22.506;2022-12-18T09:08:20;54.55;;;21.42;;
62401;SDS011;48440;51.224;22.506;2022-12-18T09:10:46;59.78;;;20.98;;
62401;SDS011;48440;51.224;22.506;2022-12-18T09:13:14;55.47;;;19.50;;
62401;SDS011;48440;51.224;22.506;2022-12-18T09:15:47;51.13;;;19.85;;
62401;SDS011;48440;51.224;22.506;2022-12-18T09:18:14;48.65;;;18.58;;
62401;SDS011;48440;51.224;22.506;2022-12-18T09:20:41;47.58;;;19.27;;
62401;SDS011;48440;51.224;22.506;2022-12-18T09:23:07;50.58;;;18.48;;
62401;SDS011;48440;51.224;22.506;2022-12-18T09:25:33;55.15;;;19.83;;
62401;SDS011;48440;51.224;22.506;2022-12-18T09:28:15;52.40;;;18.65;;
62401;SDS011;48440;51.224;22.506;2022-12-18T09:30:42;53.67;;;20.48;;
62401;SDS011;48440;51.224;22.506;2022-12-18T09:33:10;52.42;;;19.20;;
62401;SDS011;48440;51.224;22.506;2022-12-18T09:35:36;56.72;;;19.90;;
62401;SDS011;48440;51.224;22.506;2022-12-18T09:38:06;64.53;;;22.05;;
62401;SDS011;48440;51.224;22.506;2022-12-18T09:40:39;65.63;;;22.40;;
62401;SDS011;48440;51.224;22.506;2022-12-18T09:43:19;61.13;;;22.02;;
62401;SDS011;48440;51.224;22.506;2022-12-18T09:45:51;54.00;;;19.65;;
62401;SDS011;48440;51.224;22.506;2022-12-18T09:48:23;61.20;;;20.30;;
62401;SDS011;48440;51.224;22.506;2022-12-18T09:51:00;62.15;;;21.10;;
62401;SDS011;48440;51.224;22.506;2022-12-18T09:53:32;53.80;;;20.45;;
62401;SDS011;48440;51.224;22.506;2022-12-18T09:56:01;58.58;;;20.60;;
62401;SDS011;48440;51.224;22.506;2022-12-18T10:01:09;60.67;;;20.15;;
62401;SDS011;48440;51.224;22.506;2022-12-18T10:03:36;52.40;;;18.60;;
62401;SDS011;48440;51.224;22.506;2022-12-18T10:06:13;49.45;;;18.85;;
62401;SDS011;48440;51.224;22.506;2022-12-18T10:12:07;52.78;;;19.00;;
62401;SDS011;48440;51.224;22.506;2022-12-18T10:14:57;50.53;;;17.98;;
62401;SDS011;48440;51.224;22.506;2022-12-18T10:17:50;54.47;;;19.25;;
62401;SDS011;48440;51.224;22.506;2022-12-18T10:20:32;55.20;;;19.08;;
62401;SDS011;48440;51.224;22.506;2022-12-18T10:24:23;42.78;;;16.75;;
62401;SDS011;48440;51.224;22.506;2022-12-18T10:26:33;54.15;;;20.15;;
62401;SDS011;48440;51.224;22.506;2022-12-18T10:28:59;50.67;;;18.52;;
62401;SDS011;48440;51.224;22.506;2022-12-18T10:31:26;50.92;;;19.50;;
62401;SDS011;48440;51.224;22.506;2022-12-18T10:33:55;53.00;;;21.08;;
62401;SDS011;48440;51.224;22.506;2022-12-18T10:36:22;53.03;;;20.00;;
62401;SDS011;48440;51.224;22.506;2022-12-18T10:38:48;55.95;;;20.83;;
62401;SDS011;48440;51.224;22.506;2022-12-18T10:43:47;64.93;;;22.23;;
62401;SDS011;48440;51.224;22.506;2022-12-18T10:46:14;63.38;;;22.30;;
62401;SDS011;48440;51.224;22.506;2022-12-18T10:53:54;59.33;;;20.52;;
62401;SDS011;48440;51.224;22.506;2022-12-18T11:01:27;51.95;;;19.05;;
62401;SDS011;48440;51.224;22.506;2022-12-18T11:04:22;54.05;;;19.35;;
62401;SDS011;48440;51.224;22.506;2022-12-18T11:07:02;55.70;;;19.92;;
62401;SDS011;48440;51.224;22.506;2022-12-18T11:09:34;52.75;;;18.65;;
62401;SDS011;48440;51.224;22.506;2022-12-18T11:12:02;50.10;;;18.88;;
62401;SDS011;48440;51.224;22.506;2022-12-18T11:14:41;43.10;;;17.17;;
62401;SDS011;48440;51.224;22.506;2022-12-18T11:20:07;43.90;;;16.30;;
62401;SDS011;48440;51.224;22.506;2022-12-18T11:23:00;43.50;;;17.15;;
62401;SDS011;48440;51.224;22.506;2022-12-18T11:25:29;42.83;;;16.75;;
62401;SDS011;48440;51.224;22.506;2022-12-18T11:30:27;39.25;;;16.48;;
62401;SDS011;48440;51.224;22.506;2022-12-18T11:33:09;44.20;;;16.77;;
62401;SDS011;48440;51.224;22.506;2022-12-18T11:35:48;50.55;;;16.70;;
62401;SDS011;48440;51.224;22.506;2022-12-18T11:40:51;40.58;;;15.55;;
62401;SDS011;48440;51.224;22.506;2022-12-18T11:43:40;40.88;;;16.05;;
62401;SDS011;48440;51.224;22.506;2022-12-18T11:46:23;42.10;;;17.13;;
62401;SDS011;48440;51.224;22.506;2022-12-18T11:48:58;43.53;;;15.90;;
62401;SDS011;48440;51.224;22.506;2022-12-18T11:51:33;38.25;;;15.45;;
62401;SDS011;48440;51.224;22.506;2022-12-18T11:54:13;39.97;;;15.88;;
62401;SDS011;48440;51.224;22.506;2022-12-18T11:56:45;37.90;;;14.68;;
62401;SDS011;48440;51.224;22.506;2022-12-18T12:02:11;37.15;;;14.68;;
62401;SDS011;48440;51.224;22.506;2022-12-18T12:07:23;46.20;;;17.45;;
62401;SDS011;48440;51.224;22.506;2022-12-18T12:10:18;41.42;;;16.20;;
62401;SDS011;48440;51.224;22.506;2022-12-18T12:18:19;40.63;;;13.75;;
62401;SDS011;48440;51.224;22.506;2022-12-18T12:40:19;36.72;;;14.88;;
62401;SDS011;48440;51.224;22.506;2022-12-18T12:42:49;35.20;;;14.60;;
62401;SDS011;48440;51.224;22.506;2022-12-18T12:45:57;36.58;;;13.27;;
62401;SDS011;48440;51.224;22.506;2022-12-18T12:48:41;40.35;;;14.55;;
62401;SDS011;48440;51.224;22.506;2022-12-18T12:51:22;28.95;;;11.90;;
62401;SDS011;48440;51.224;22.506;2022-12-18T12:53:51;36.47;;;12.32;;
62401;SDS011;48440;51.224;22.506;2022-12-18T12:56:20;30.45;;;12.50;;
62401;SDS011;48440;51.224;22.506;2022-12-18T12:59:02;40.33;;;14.80;;
62401;SDS011;48440;51.224;22.506;2022-12-18T13:07:35;35.35;;;12.55;;
62401;SDS011;48440;51.224;22.506;2022-12-18T13:13:07;37.13;;;13.05;;
62401;SDS011;48440;51.224;22.506;2022-12-18T13:18:20;47.47;;;15.88;;
62401;SDS011;48440;51.224;22.506;2022-12-18T13:21:01;38.55;;;16.40;;
62401;SDS011;48440;51.224;22.506;2022-12-18T13:23:36;38.22;;;12.82;;
62401;SDS011;48440;51.224;22.506;2022-12-18T13:31:13;53.55;;;20.52;;
62401;SDS011;48440;51.224;22.506;2022-12-18T13:33:40;45.63;;;18.40;;
62401;SDS011;48440;51.224;22.506;2022-12-18T13:39:08;36.20;;;15.27;;
62401;SDS011;48440;51.224;22.506;2022-12-18T13:41:35;41.97;;;15.25;;
62401;SDS011;48440;51.224;22.506;2022-12-18T13:44:11;42.95;;;14.85;;
62401;SDS011;48440;51.224;22.506;2022-12-18T13:46:47;34.83;;;13.55;;
62401;SDS011;48440;51.224;22.506;2022-12-18T13:54:41;28.88;;;11.95;;
62401;SDS011;48440;51.224;22.506;2022-12-18T13:59:54;39.85;;;13.30;;
62401;SDS011;48440;51.224;22.506;2022-12-18T14:02:22;36.13;;;14.32;;
62401;SDS011;48440;51.224;22.506;2022-12-18T14:04:50;50.05;;;17.35;;
62401;SDS011;48440;51.224;22.506;2022-12-18T14:07:17;45.78;;;16.38;;
62401;SDS011;48440;51.224;22.506;2022-12-18T14:09:46;42.20;;;15.43;;
62401;SDS011;48440;51.224;22.506;2022-12-18T14:12:16;59.72;;;18.73;;
62401;SDS011;48440;51.224;22.506;2022-12-18T14:15:02;55.25;;;18.55;;
62401;SDS011;48440;51.224;22.506;2022-12-18T14:17:30;48.85;;;18.73;;
62401;SDS011;48440;51.224;22.506;2022-12-18T14:19:57;47.22;;;17.73;;
62401;SDS011;48440;51.224;22.506;2022-12-18T14:22:24;48.60;;;18.05;;
62401;SDS011;48440;51.224;22.506;2022-12-18T14:27:42;46.40;;;18.17;;
62401;SDS011;48440;51.224;22.506;2022-12-18T14:30:23;49.92;;;17.38;;
62401;SDS011;48440;51.224;22.506;2022-12-18T14:33:03;50.78;;;16.73;;
62401;SDS011;48440;51.224;22.506;2022-12-18T14:35:31;47.20;;;16.63;;
62401;SDS011;48440;51.224;22.506;2022-12-18T14:38:17;39.67;;;15.60;;
62401;SDS011;48440;51.224;22.506;2022-12-18T14:40:47;44.40;;;15.15;;
62401;SDS011;48440;51.224;22.506;2022-12-18T14:43:17;40.45;;;16.52;;
62401;SDS011;48440;51.224;22.506;2022-12-18T14:45:43;35.88;;;14.85;;
62401;SDS011;48440;51.224;22.506;2022-12-18T14:50:36;34.92;;;12.60;;
62401;SDS011;48440;51.224;22.506;2022-12-18T14:53:03;37.50;;;14.07;;
62401;SDS011;48440;51.224;22.506;2022-12-18T14:55:29;39.42;;;16.20;;
62401;SDS011;48440;51.224;22.506;2022-12-18T14:57:55;37.63;;;14.55;;
62401;SDS011;48440;51.224;22.506;2022-12-18T15:00:23;39.92;;;14.98;;
62401;SDS011;48440;51.224;22.506;2022-12-18T15:02:54;35.17;;;14.48;;
62401;SDS011;48440;51.224;22.506;2022-12-18T15:05:25;38.75;;;14.80;;
62401;SDS011;48440;51.224;22.506;2022-12-18T15:07:55;42.00;;;17.03;;
62401;SDS011;48440;51.224;22.506;2022-12-18T15:10:24;40.38;;;16.95;;
62401;SDS011;48440;51.224;22.506;2022-12-18T15:20:47;54.25;;;18.23;;
62401;SDS011;48440;51.224;22.506;2022-12-18T15:23:24;47.38;;;17.02;;
62401;SDS011;48440;51.224;22.506;2022-12-18T15:26:02;56.05;;;19.00;;
62401;SDS011;48440;51.224;22.506;2022-12-18T15:28:37;56.05;;;19.00;;
62401;SDS011;48440;51.224;22.506;2022-12-18T15:31:06;52.60;;;19.38;;
62401;SDS011;48440;51.224;22.506;2022-12-18T15:36:19;55.65;;;20.38;;
62401;SDS011;48440;51.224;22.506;2022-12-18T15:38:47;53.70;;;20.50;;
62401;SDS011;48440;51.224;22.506;2022-12-18T15:41:20;57.53;;;18.70;;
62401;SDS011;48440;51.224;22.506;2022-12-18T15:43:50;58.75;;;21.88;;
62401;SDS011;48440;51.224;22.506;2022-12-18T15:46:19;52.33;;;19.40;;
62401;SDS011;48440;51.224;22.506;2022-12-18T15:48:49;53.53;;;20.65;;
62401;SDS011;48440;51.224;22.506;2022-12-18T15:53:54;54.55;;;18.73;;
62401;SDS011;48440;51.224;22.506;2022-12-18T15:56:22;45.42;;;16.95;;
62401;SDS011;48440;51.224;22.506;2022-12-18T15:59:10;50.08;;;16.60;;
62401;SDS011;48440;51.224;22.506;2022-12-18T16:01:39;50.80;;;18.70;;
62401;SDS011;48440;51.224;22.506;2022-12-18T16:04:05;56.13;;;20.27;;
62401;SDS011;48440;51.224;22.506;2022-12-18T16:06:31;60.28;;;20.65;;
62401;SDS011;48440;51.224;22.506;2022-12-18T16:08:56;44.40;;;17.00;;
62401;SDS011;48440;51.224;22.506;2022-12-18T16:16:53;37.97;;;13.32;;
62401;SDS011;48440;51.224;22.506;2022-12-18T16:19:20;37.10;;;13.18;;
62401;SDS011;48440;51.224;22.506;2022-12-18T16:21:46;37.67;;;14.70;;
62401;SDS011;48440;51.224;22.506;2022-12-18T16:24:17;44.88;;;16.48;;
62401;SDS011;48440;51.224;22.506;2022-12-18T16:26:47;45.58;;;15.02;;
62401;SDS011;48440;51.224;22.506;2022-12-18T16:29:13;40.40;;;15.82;;
62401;SDS011;48440;51.224;22.506;2022-12-18T16:31:38;41.33;;;15.20;;